sensor_id;sensor_type;location;lat;lon;timestamp;P1;durP1;ratioP1;P2;durP2;ratioP2
29908;SDS011;36247;51.952;6.146;2022-08-01T00:00:05;18.33;;;11.30;;
29908;SDS011;36247;51.952;6.146;2022-08-01T00:02:34;19.33;;;11.98;;
29908;SDS011;36247;51.952;6.146;2022-08-01T00:05:00;21.20;;;11.70;;
29908;SDS011;36247;51.952;6.146;2022-08-01T00:07:26;19.65;;;11.43;;
29908;SDS011;36247;51.952;6.146;2022-08-01T00:09:52;16.58;;;11.25;;
29908;SDS011;36247;51.952;6.146;2022-08-01T00:12:17;22.33;;;12.70;;
29908;SDS011;36247;51.952;6.146;2022-08-01T00:14:46;21.65;;;13.07;;
29908;SDS011;36247;51.952;6.146;2022-08-01T00:17:11;21.95;;;13.18;;
29908;SDS011;36247;51.952;6.146;2022-08-01T00:19:37;23.52;;;13.90;;
29908;SDS011;36247;51.952;6.146;2022-08-01T00:22:05;21.10;;;12.38;;
29908;SDS011;36247;51.952;6.146;2022-08-01T00:24:31;22.63;;;14.32;;
29908;SDS011;36247;51.952;6.146;2022-08-01T00:26:56;22.10;;;14.93;;
29908;SDS011;36247;51.952;6.146;2022-08-01T00:29:22;23.15;;;15.73;;
29908;SDS011;36247;51.952;6.146;2022-08-01T00:31:47;28.25;;;15.38;;
29908;SDS011;36247;51.952;6.146;2022-08-01T00:34:13;26.42;;;15.48;;
29908;SDS011;36247;51.952;6.146;2022-08-01T00:36:38;25.15;;;15.70;;
29908;SDS011;36247;51.952;6.146;2022-08-01T00:39:04;23.95;;;15.30;;
29908;SDS011;36247;51.952;6.146;2022-08-01T00:41:29;23.77;;;13.65;;
29908;SDS011;36247;51.952;6.146;2022-08-01T00:43:54;20.58;;;13.00;;
29908;SDS011;36247;51.952;6.146;2022-08-01T00:46:20;19.08;;;12.50;;
29908;SDS011;36247;51.952;6.146;2022-08-01T00:48:45;21.67;;;12.27;;
29908;SDS011;36247;51.952;6.146;2022-08-01T00:51:11;18.77;;;13.15;;
29908;SDS011;36247;51.952;6.146;2022-08-01T00:53:38;17.75;;;12.40;;
29908;SDS011;36247;51.952;6.146;2022-08-01T00:56:04;17.02;;;12.02;;
29908;SDS011;36247;51.952;6.146;2022-08-01T00:58:30;18.70;;;12.93;;
29908;SDS011;36247;51.952;6.146;2022-08-01T01:03:16;20.90;;;12.30;;
29908;SDS011;36247;51.952;6.146;2022-08-01T01:05:48;18.20;;;12.02;;
29908;SDS011;36247;51.952;6.146;2022-08-01T01:08:46;17.00;;;11.20;;
29908;SDS011;36247;51.952;6.146;2022-08-01T01:11:37;18.85;;;12.35;;
29908;SDS011;36247;51.952;6.146;2022-08-01T01:14:27;16.55;;;10.88;;
29908;SDS011;36247;51.952;6.146;2022-08-01T01:17:01;14.88;;;10.38;;
29908;SDS011;36247;51.952;6.146;2022-08-01T01:19:29;15.00;;;10.57;;
29908;SDS011;36247;51.952;6.146;2022-08-01T01:22:08;15.93;;;10.30;;
29908;SDS011;36247;51.952;6.146;2022-08-01T01:27:33;13.88;;;9.55;;
29908;SDS011;36247;51.952;6.146;2022-08-01T01:30:08;14.02;;;8.40;;
29908;SDS011;36247;51.952;6.146;2022-08-01T01:32:42;13.93;;;8.20;;
29908;SDS011;36247;51.952;6.146;2022-08-01T01:35:23;11.70;;;7.68;;
29908;SDS011;36247;51.952;6.146;2022-08-01T01:37:52;15.27;;;9.55;;
29908;SDS011;36247;51.952;6.146;2022-08-01T01:40:22;15.02;;;9.57;;
29908;SDS011;36247;51.952;6.146;2022-08-01T01:42:49;15.27;;;8.98;;
29908;SDS011;36247;51.952;6.146;2022-08-01T01:45:15;14.88;;;10.07;;
29908;SDS011;36247;51.952;6.146;2022-08-01T01:47:41;17.48;;;10.13;;
29908;SDS011;36247;51.952;6.146;2022-08-01T01:50:09;18.73;;;11.07;;
29908;SDS011;36247;51.952;6.146;2022-08-01T01:52:37;18.90;;;12.73;;
29908;SDS011;36247;51.952;6.146;2022-08-01T01:55:05;21.67;;;13.75;;
29908;SDS011;36247;51.952;6.146;2022-08-01T01:57:36;23.13;;;16.13;;
29908;SDS011;36247;51.952;6.146;2022-08-01T02:00:04;28.88;;;16.48;;
29908;SDS011;36247;51.952;6.146;2022-08-01T02:02:32;24.98;;;17.33;;
29908;SDS011;36247;51.952;6.146;2022-08-01T02:04:58;23.83;;;15.65;;
29908;SDS011;36247;51.952;6.146;2022-08-01T02:07:25;25.27;;;17.33;;
29908;SDS011;36247;51.952;6.146;2022-08-01T02:09:52;26.60;;;16.13;;
29908;SDS011;36247;51.952;6.146;2022-08-01T02:12:20;26.60;;;15.65;;
29908;SDS011;36247;51.952;6.146;2022-08-01T02:14:47;27.95;;;16.75;;
29908;SDS011;36247;51.952;6.146;2022-08-01T02:17:16;26.38;;;16.30;;
29908;SDS011;36247;51.952;6.146;2022-08-01T02:19:43;23.23;;;14.45;;
29908;SDS011;36247;51.952;6.146;2022-08-01T02:22:11;24.08;;;14.75;;
29908;SDS011;36247;51.952;6.146;2022-08-01T02:27:11;24.75;;;15.30;;
29908;SDS011;36247;51.952;6.146;2022-08-01T02:29:42;27.42;;;16.80;;
29908;SDS011;36247;51.952;6.146;2022-08-01T02:32:24;26.08;;;15.15;;
29908;SDS011;36247;51.952;6.146;2022-08-01T02:34:55;27.88;;;15.82;;
29908;SDS011;36247;51.952;6.146;2022-08-01T02:37:22;26.00;;;15.00;;
29908;SDS011;36247;51.952;6.146;2022-08-01T02:39:52;22.90;;;13.77;;
29908;SDS011;36247;51.952;6.146;2022-08-01T02:42:19;21.45;;;14.23;;
29908;SDS011;36247;51.952;6.146;2022-08-01T02:44:47;23.95;;;15.02;;
29908;SDS011;36247;51.952;6.146;2022-08-01T02:47:14;21.02;;;12.40;;
29908;SDS011;36247;51.952;6.146;2022-08-01T02:49:45;24.30;;;13.93;;
29908;SDS011;36247;51.952;6.146;2022-08-01T02:52:15;21.35;;;13.68;;
29908;SDS011;36247;51.952;6.146;2022-08-01T02:54:47;22.17;;;13.05;;
29908;SDS011;36247;51.952;6.146;2022-08-01T02:57:14;23.15;;;14.38;;
29908;SDS011;36247;51.952;6.146;2022-08-01T02:59:43;26.13;;;12.20;;
29908;SDS011;36247;51.952;6.146;2022-08-01T03:02:10;23.67;;;13.13;;
29908;SDS011;36247;51.952;6.146;2022-08-01T03:04:38;19.00;;;12.27;;
29908;SDS011;36247;51.952;6.146;2022-08-01T03:07:07;18.15;;;12.48;;
29908;SDS011;36247;51.952;6.146;2022-08-01T03:09:42;21.40;;;11.88;;
29908;SDS011;36247;51.952;6.146;2022-08-01T03:12:17;18.60;;;12.18;;
29908;SDS011;36247;51.952;6.146;2022-08-01T03:14:45;17.98;;;11.43;;
29908;SDS011;36247;51.952;6.146;2022-08-01T03:17:13;16.73;;;9.50;;
29908;SDS011;36247;51.952;6.146;2022-08-01T03:19:41;20.00;;;10.38;;
29908;SDS011;36247;51.952;6.146;2022-08-01T03:22:11;16.70;;;10.00;;
29908;SDS011;36247;51.952;6.146;2022-08-01T03:24:39;16.92;;;9.50;;
29908;SDS011;36247;51.952;6.146;2022-08-01T03:27:06;13.18;;;8.35;;
29908;SDS011;36247;51.952;6.146;2022-08-01T03:29:34;17.55;;;10.27;;
29908;SDS011;36247;51.952;6.146;2022-08-01T03:32:01;14.73;;;8.80;;
29908;SDS011;36247;51.952;6.146;2022-08-01T03:34:27;14.38;;;10.02;;
29908;SDS011;36247;51.952;6.146;2022-08-01T03:37:05;15.82;;;8.60;;
29908;SDS011;36247;51.952;6.146;2022-08-01T03:39:37;13.40;;;8.70;;
29908;SDS011;36247;51.952;6.146;2022-08-01T03:42:12;11.60;;;8.20;;
29908;SDS011;36247;51.952;6.146;2022-08-01T03:44:41;12.85;;;8.48;;
29908;SDS011;36247;51.952;6.146;2022-08-01T03:47:12;14.02;;;9.02;;
29908;SDS011;36247;51.952;6.146;2022-08-01T03:49:42;14.23;;;7.47;;
29908;SDS011;36247;51.952;6.146;2022-08-01T03:52:10;10.35;;;6.57;;
29908;SDS011;36247;51.952;6.146;2022-08-01T03:54:42;10.68;;;6.75;;
29908;SDS011;36247;51.952;6.146;2022-08-01T03:57:11;10.00;;;7.18;;
29908;SDS011;36247;51.952;6.146;2022-08-01T03:59:38;10.50;;;6.80;;
29908;SDS011;36247;51.952;6.146;2022-08-01T04:02:06;12.15;;;6.70;;
29908;SDS011;36247;51.952;6.146;2022-08-01T04:04:32;9.85;;;6.63;;
29908;SDS011;36247;51.952;6.146;2022-08-01T04:06:58;11.43;;;6.75;;
29908;SDS011;36247;51.952;6.146;2022-08-01T04:09:29;9.88;;;7.28;;
29908;SDS011;36247;51.952;6.146;2022-08-01T04:11:56;10.25;;;7.25;;
29908;SDS011;36247;51.952;6.146;2022-08-01T04:14:23;9.15;;;6.68;;
29908;SDS011;36247;51.952;6.146;2022-08-01T04:16:48;9.50;;;6.57;;
29908;SDS011;36247;51.952;6.146;2022-08-01T04:19:14;10.82;;;6.47;;
29908;SDS011;36247;51.952;6.146;2022-08-01T04:21:39;10.63;;;6.18;;
29908;SDS011;36247;51.952;6.146;2022-08-01T04:24:13;8.70;;;6.13;;
29908;SDS011;36247;51.952;6.146;2022-08-01T04:26:41;8.65;;;6.38;;
29908;SDS011;36247;51.952;6.146;2022-08-01T04:29:10;10.40;;;6.93;;
29908;SDS011;36247;51.952;6.146;2022-08-01T04:31:37;8.43;;;5.93;;
29908;SDS011;36247;51.952;6.146;2022-08-01T04:34:06;8.38;;;5.57;;
29908;SDS011;36247;51.952;6.146;2022-08-01T04:36:32;7.70;;;4.88;;
29908;SDS011;36247;51.952;6.146;2022-08-01T04:39:00;6.78;;;5.28;;
29908;SDS011;36247;51.952;6.146;2022-08-01T04:41:27;7.75;;;5.35;;
29908;SDS011;36247;51.952;6.146;2022-08-01T04:43:54;6.35;;;4.57;;
29908;SDS011;36247;51.952;6.146;2022-08-01T04:46:26;6.68;;;4.88;;
29908;SDS011;36247;51.952;6.146;2022-08-01T04:48:53;7.35;;;4.70;;
29908;SDS011;36247;51.952;6.146;2022-08-01T04:51:19;7.25;;;4.05;;
29908;SDS011;36247;51.952;6.146;2022-08-01T04:53:47;9.63;;;4.80;;
29908;SDS011;36247;51.952;6.146;2022-08-01T04:56:14;6.28;;;4.10;;
29908;SDS011;36247;51.952;6.146;2022-08-01T04:58:43;6.43;;;5.13;;
29908;SDS011;36247;51.952;6.146;2022-08-01T05:01:12;7.95;;;4.55;;
29908;SDS011;36247;51.952;6.146;2022-08-01T05:03:38;5.90;;;4.35;;
29908;SDS011;36247;51.952;6.146;2022-08-01T05:06:04;5.25;;;4.15;;
29908;SDS011;36247;51.952;6.146;2022-08-01T05:08:29;7.75;;;4.55;;
29908;SDS011;36247;51.952;6.146;2022-08-01T05:10:55;5.90;;;4.30;;
29908;SDS011;36247;51.952;6.146;2022-08-01T05:13:20;5.55;;;3.88;;
29908;SDS011;36247;51.952;6.146;2022-08-01T05:18:05;5.35;;;4.32;;
29908;SDS011;36247;51.952;6.146;2022-08-01T05:20:31;4.75;;;4.20;;
29908;SDS011;36247;51.952;6.146;2022-08-01T05:22:57;5.80;;;4.40;;
29908;SDS011;36247;51.952;6.146;2022-08-01T05:25:22;6.38;;;4.10;;
29908;SDS011;36247;51.952;6.146;2022-08-01T05:27:48;7.60;;;4.93;;
29908;SDS011;36247;51.952;6.146;2022-08-01T05:30:15;6.57;;;4.70;;
29908;SDS011;36247;51.952;6.146;2022-08-01T05:32:41;7.25;;;4.60;;
29908;SDS011;36247;51.952;6.146;2022-08-01T05:35:07;5.93;;;5.03;;
29908;SDS011;36247;51.952;6.146;2022-08-01T05:37:33;9.95;;;6.30;;
29908;SDS011;36247;51.952;6.146;2022-08-01T05:39:59;5.82;;;5.18;;
29908;SDS011;36247;51.952;6.146;2022-08-01T05:42:25;7.43;;;5.95;;
29908;SDS011;36247;51.952;6.146;2022-08-01T05:44:51;9.30;;;6.18;;
29908;SDS011;36247;51.952;6.146;2022-08-01T05:47:17;8.57;;;5.97;;
29908;SDS011;36247;51.952;6.146;2022-08-01T05:49:44;7.32;;;6.20;;
29908;SDS011;36247;51.952;6.146;2022-08-01T05:52:10;10.43;;;7.18;;
29908;SDS011;36247;51.952;6.146;2022-08-01T05:54:36;10.40;;;6.50;;
29908;SDS011;36247;51.952;6.146;2022-08-01T05:57:02;9.48;;;6.80;;
29908;SDS011;36247;51.952;6.146;2022-08-01T05:59:28;8.00;;;6.10;;
29908;SDS011;36247;51.952;6.146;2022-08-01T06:01:54;7.20;;;5.50;;
29908;SDS011;36247;51.952;6.146;2022-08-01T06:04:19;8.57;;;6.15;;
29908;SDS011;36247;51.952;6.146;2022-08-01T06:06:45;9.57;;;6.47;;
29908;SDS011;36247;51.952;6.146;2022-08-01T06:09:10;7.22;;;5.82;;
29908;SDS011;36247;51.952;6.146;2022-08-01T06:11:36;8.13;;;5.95;;
29908;SDS011;36247;51.952;6.146;2022-08-01T06:14:01;10.13;;;6.38;;
29908;SDS011;36247;51.952;6.146;2022-08-01T06:16:27;8.38;;;6.32;;
29908;SDS011;36247;51.952;6.146;2022-08-01T06:18:52;7.45;;;5.70;;
29908;SDS011;36247;51.952;6.146;2022-08-01T06:21:17;7.93;;;6.63;;
29908;SDS011;36247;51.952;6.146;2022-08-01T06:23:44;9.63;;;7.03;;
29908;SDS011;36247;51.952;6.146;2022-08-01T06:26:09;5.88;;;4.85;;
29908;SDS011;36247;51.952;6.146;2022-08-01T06:28:35;8.23;;;6.72;;
29908;SDS011;36247;51.952;6.146;2022-08-01T06:31:01;11.07;;;6.72;;
29908;SDS011;36247;51.952;6.146;2022-08-01T06:33:26;3.55;;;2.80;;
29908;SDS011;36247;51.952;6.146;2022-08-01T06:35:52;2.83;;;1.98;;
29908;SDS011;36247;51.952;6.146;2022-08-01T06:38:18;1.60;;;1.50;;
29908;SDS011;36247;51.952;6.146;2022-08-01T06:40:43;1.83;;;1.40;;
29908;SDS011;36247;51.952;6.146;2022-08-01T06:43:09;2.67;;;1.95;;
29908;SDS011;36247;51.952;6.146;2022-08-01T06:45:37;2.22;;;1.70;;
29908;SDS011;36247;51.952;6.146;2022-08-01T06:48:03;2.00;;;1.42;;
29908;SDS011;36247;51.952;6.146;2022-08-01T06:50:30;1.60;;;1.50;;
29908;SDS011;36247;51.952;6.146;2022-08-01T06:52:55;1.27;;;1.17;;
29908;SDS011;36247;51.952;6.146;2022-08-01T06:55:21;1.60;;;1.27;;
29908;SDS011;36247;51.952;6.146;2022-08-01T06:57:47;2.13;;;1.50;;
29908;SDS011;36247;51.952;6.146;2022-08-01T07:00:17;2.40;;;1.50;;
29908;SDS011;36247;51.952;6.146;2022-08-01T07:02:47;1.95;;;1.60;;
29908;SDS011;36247;51.952;6.146;2022-08-01T07:05:13;2.92;;;1.45;;
29908;SDS011;36247;51.952;6.146;2022-08-01T07:07:38;1.85;;;1.65;;
29908;SDS011;36247;51.952;6.146;2022-08-01T07:10:04;4.97;;;1.65;;
29908;SDS011;36247;51.952;6.146;2022-08-01T07:12:30;1.35;;;1.23;;
29908;SDS011;36247;51.952;6.146;2022-08-01T07:14:56;2.10;;;1.55;;
29908;SDS011;36247;51.952;6.146;2022-08-01T07:17:21;1.90;;;1.73;;
29908;SDS011;36247;51.952;6.146;2022-08-01T07:19:47;3.42;;;1.30;;
29908;SDS011;36247;51.952;6.146;2022-08-01T07:22:13;1.40;;;1.30;;
29908;SDS011;36247;51.952;6.146;2022-08-01T07:24:39;4.65;;;1.73;;
29908;SDS011;36247;51.952;6.146;2022-08-01T07:27:05;1.63;;;1.50;;
29908;SDS011;36247;51.952;6.146;2022-08-01T07:29:30;1.60;;;1.50;;
29908;SDS011;36247;51.952;6.146;2022-08-01T07:31:56;2.67;;;1.73;;
29908;SDS011;36247;51.952;6.146;2022-08-01T07:34:23;2.28;;;1.92;;
29908;SDS011;36247;51.952;6.146;2022-08-01T07:36:50;3.55;;;2.08;;
29908;SDS011;36247;51.952;6.146;2022-08-01T07:39:17;2.10;;;1.63;;
29908;SDS011;36247;51.952;6.146;2022-08-01T07:41:43;3.25;;;1.77;;
29908;SDS011;36247;51.952;6.146;2022-08-01T07:44:11;2.30;;;2.10;;
29908;SDS011;36247;51.952;6.146;2022-08-01T07:46:37;3.05;;;2.22;;
29908;SDS011;36247;51.952;6.146;2022-08-01T07:49:02;2.90;;;2.00;;
29908;SDS011;36247;51.952;6.146;2022-08-01T07:51:27;4.53;;;1.95;;
29908;SDS011;36247;51.952;6.146;2022-08-01T07:53:53;3.63;;;1.92;;
29908;SDS011;36247;51.952;6.146;2022-08-01T07:56:18;5.53;;;2.05;;
29908;SDS011;36247;51.952;6.146;2022-08-01T07:58:44;3.45;;;2.05;;
29908;SDS011;36247;51.952;6.146;2022-08-01T08:01:11;4.72;;;2.10;;
29908;SDS011;36247;51.952;6.146;2022-08-01T08:03:37;4.13;;;2.97;;
29908;SDS011;36247;51.952;6.146;2022-08-01T08:06:02;2.60;;;2.40;;
29908;SDS011;36247;51.952;6.146;2022-08-01T08:08:27;7.47;;;2.70;;
29908;SDS011;36247;51.952;6.146;2022-08-01T08:10:53;3.55;;;2.20;;
29908;SDS011;36247;51.952;6.146;2022-08-01T08:13:18;3.50;;;2.75;;
29908;SDS011;36247;51.952;6.146;2022-08-01T08:15:44;3.10;;;2.35;;
29908;SDS011;36247;51.952;6.146;2022-08-01T08:18:09;3.42;;;2.22;;
29908;SDS011;36247;51.952;6.146;2022-08-01T08:20:35;2.83;;;2.38;;
29908;SDS011;36247;51.952;6.146;2022-08-01T08:23:00;2.95;;;2.20;;
29908;SDS011;36247;51.952;6.146;2022-08-01T08:25:26;3.97;;;1.90;;
29908;SDS011;36247;51.952;6.146;2022-08-01T08:27:53;4.00;;;2.30;;
29908;SDS011;36247;51.952;6.146;2022-08-01T08:30:19;7.75;;;2.80;;
29908;SDS011;36247;51.952;6.146;2022-08-01T08:32:45;4.00;;;2.55;;
29908;SDS011;36247;51.952;6.146;2022-08-01T08:35:10;3.53;;;2.47;;
29908;SDS011;36247;51.952;6.146;2022-08-01T08:37:36;2.90;;;2.60;;
29908;SDS011;36247;51.952;6.146;2022-08-01T08:40:04;5.22;;;2.83;;
29908;SDS011;36247;51.952;6.146;2022-08-01T08:42:30;5.47;;;2.60;;
29908;SDS011;36247;51.952;6.146;2022-08-01T08:44:56;7.22;;;3.15;;
29908;SDS011;36247;51.952;6.146;2022-08-01T08:47:21;5.60;;;3.50;;
29908;SDS011;36247;51.952;6.146;2022-08-01T08:49:51;5.60;;;2.90;;
29908;SDS011;36247;51.952;6.146;2022-08-01T08:52:18;4.88;;;2.75;;
29908;SDS011;36247;51.952;6.146;2022-08-01T08:54:45;4.07;;;2.83;;
29908;SDS011;36247;51.952;6.146;2022-08-01T08:57:13;7.38;;;3.20;;
29908;SDS011;36247;51.952;6.146;2022-08-01T08:59:39;6.18;;;3.30;;
29908;SDS011;36247;51.952;6.146;2022-08-01T09:02:05;9.85;;;3.30;;
29908;SDS011;36247;51.952;6.146;2022-08-01T09:04:32;5.03;;;2.60;;
29908;SDS011;36247;51.952;6.146;2022-08-01T09:06:57;5.72;;;2.47;;
29908;SDS011;36247;51.952;6.146;2022-08-01T09:09:23;4.97;;;2.83;;
29908;SDS011;36247;51.952;6.146;2022-08-01T09:11:49;8.45;;;2.78;;
29908;SDS011;36247;51.952;6.146;2022-08-01T09:14:17;4.50;;;2.88;;
29908;SDS011;36247;51.952;6.146;2022-08-01T09:16:59;7.10;;;2.83;;
29908;SDS011;36247;51.952;6.146;2022-08-01T09:19:27;5.40;;;2.47;;
29908;SDS011;36247;51.952;6.146;2022-08-01T09:22:01;5.70;;;3.40;;
29908;SDS011;36247;51.952;6.146;2022-08-01T09:24:29;3.38;;;2.60;;
29908;SDS011;36247;51.952;6.146;2022-08-01T09:26:56;6.78;;;3.53;;
29908;SDS011;36247;51.952;6.146;2022-08-01T09:29:24;6.28;;;3.55;;
29908;SDS011;36247;51.952;6.146;2022-08-01T09:31:51;8.48;;;3.10;;
29908;SDS011;36247;51.952;6.146;2022-08-01T09:34:27;5.85;;;3.20;;
29908;SDS011;36247;51.952;6.146;2022-08-01T09:36:59;3.60;;;3.08;;
29908;SDS011;36247;51.952;6.146;2022-08-01T09:39:27;5.55;;;2.95;;
29908;SDS011;36247;51.952;6.146;2022-08-01T09:41:57;6.10;;;3.50;;
29908;SDS011;36247;51.952;6.146;2022-08-01T09:44:40;4.57;;;3.38;;
29908;SDS011;36247;51.952;6.146;2022-08-01T09:47:07;8.73;;;3.77;;
29908;SDS011;36247;51.952;6.146;2022-08-01T09:49:34;4.25;;;3.40;;
29908;SDS011;36247;51.952;6.146;2022-08-01T09:52:16;7.88;;;3.60;;
29908;SDS011;36247;51.952;6.146;2022-08-01T09:57:25;6.05;;;3.40;;
29908;SDS011;36247;51.952;6.146;2022-08-01T09:59:53;6.90;;;3.42;;
29908;SDS011;36247;51.952;6.146;2022-08-01T10:02:34;8.60;;;3.42;;
29908;SDS011;36247;51.952;6.146;2022-08-01T10:05:04;4.85;;;3.35;;
29908;SDS011;36247;51.952;6.146;2022-08-01T10:07:32;5.63;;;3.22;;
29908;SDS011;36247;51.952;6.146;2022-08-01T10:10:19;6.97;;;4.05;;
29908;SDS011;36247;51.952;6.146;2022-08-01T10:12:44;8.88;;;4.00;;
29908;SDS011;36247;51.952;6.146;2022-08-01T10:15:10;8.23;;;3.50;;
29908;SDS011;36247;51.952;6.146;2022-08-01T10:17:39;4.28;;;3.30;;
29908;SDS011;36247;51.952;6.146;2022-08-01T10:20:11;6.40;;;4.10;;
29908;SDS011;36247;51.952;6.146;2022-08-01T10:22:38;10.77;;;3.92;;
29908;SDS011;36247;51.952;6.146;2022-08-01T10:25:05;7.30;;;4.03;;
29908;SDS011;36247;51.952;6.146;2022-08-01T10:27:32;9.95;;;4.00;;
29908;SDS011;36247;51.952;6.146;2022-08-01T10:30:02;10.65;;;4.20;;
29908;SDS011;36247;51.952;6.146;2022-08-01T10:32:30;8.80;;;4.50;;
29908;SDS011;36247;51.952;6.146;2022-08-01T10:34:56;9.20;;;4.45;;
29908;SDS011;36247;51.952;6.146;2022-08-01T10:37:23;7.70;;;4.30;;
29908;SDS011;36247;51.952;6.146;2022-08-01T10:39:50;5.38;;;4.13;;
29908;SDS011;36247;51.952;6.146;2022-08-01T10:42:17;8.77;;;4.43;;
29908;SDS011;36247;51.952;6.146;2022-08-01T10:44:43;6.75;;;3.58;;
29908;SDS011;36247;51.952;6.146;2022-08-01T10:47:23;6.40;;;3.38;;
29908;SDS011;36247;51.952;6.146;2022-08-01T10:49:56;6.03;;;3.80;;
29908;SDS011;36247;51.952;6.146;2022-08-01T10:55:02;7.53;;;4.00;;
29908;SDS011;36247;51.952;6.146;2022-08-01T10:57:41;8.82;;;4.28;;
29908;SDS011;36247;51.952;6.146;2022-08-01T11:00:08;5.80;;;4.00;;
29908;SDS011;36247;51.952;6.146;2022-08-01T11:02:34;6.25;;;3.63;;
29908;SDS011;36247;51.952;6.146;2022-08-01T11:05:12;6.32;;;3.13;;
29908;SDS011;36247;51.952;6.146;2022-08-01T11:07:48;4.20;;;3.13;;
29908;SDS011;36247;51.952;6.146;2022-08-01T11:10:32;5.90;;;3.60;;
29908;SDS011;36247;51.952;6.146;2022-08-01T11:13:10;4.20;;;3.00;;
29908;SDS011;36247;51.952;6.146;2022-08-01T11:15:37;6.40;;;3.38;;
29908;SDS011;36247;51.952;6.146;2022-08-01T11:18:28;6.18;;;3.20;;
29908;SDS011;36247;51.952;6.146;2022-08-01T11:20:55;4.50;;;3.05;;
29908;SDS011;36247;51.952;6.146;2022-08-01T11:23:23;4.38;;;2.75;;
29908;SDS011;36247;51.952;6.146;2022-08-01T11:30:45;7.38;;;3.17;;
29908;SDS011;36247;51.952;6.146;2022-08-01T11:33:16;4.10;;;2.92;;
29908;SDS011;36247;51.952;6.146;2022-08-01T11:38:46;6.72;;;2.42;;
29908;SDS011;36247;51.952;6.146;2022-08-01T11:41:21;4.95;;;2.75;;
29908;SDS011;36247;51.952;6.146;2022-08-01T11:44:05;5.40;;;3.00;;
29908;SDS011;36247;51.952;6.146;2022-08-01T11:52:26;7.72;;;3.15;;
29908;SDS011;36247;51.952;6.146;2022-08-01T11:55:04;7.25;;;3.13;;
29908;SDS011;36247;51.952;6.146;2022-08-01T11:57:32;6.43;;;3.40;;
29908;SDS011;36247;51.952;6.146;2022-08-01T12:00:00;9.48;;;3.45;;
29908;SDS011;36247;51.952;6.146;2022-08-01T12:02:38;9.02;;;3.40;;
29908;SDS011;36247;51.952;6.146;2022-08-01T12:07:31;8.82;;;3.03;;
29908;SDS011;36247;51.952;6.146;2022-08-01T12:10:05;6.55;;;2.95;;
29908;SDS011;36247;51.952;6.146;2022-08-01T12:12:34;5.85;;;2.90;;
29908;SDS011;36247;51.952;6.146;2022-08-01T12:15:03;4.28;;;2.60;;
29908;SDS011;36247;51.952;6.146;2022-08-01T12:17:43;4.85;;;2.88;;
29908;SDS011;36247;51.952;6.146;2022-08-01T12:20:13;5.60;;;3.03;;
29908;SDS011;36247;51.952;6.146;2022-08-01T12:22:46;6.10;;;2.83;;
29908;SDS011;36247;51.952;6.146;2022-08-01T12:25:13;7.68;;;2.88;;
29908;SDS011;36247;51.952;6.146;2022-08-01T12:27:41;5.13;;;2.38;;
29908;SDS011;36247;51.952;6.146;2022-08-01T12:30:10;6.45;;;1.90;;
29908;SDS011;36247;51.952;6.146;2022-08-01T12:32:37;7.88;;;2.20;;
29908;SDS011;36247;51.952;6.146;2022-08-01T12:35:09;6.72;;;2.10;;
29908;SDS011;36247;51.952;6.146;2022-08-01T12:37:37;6.10;;;2.38;;
29908;SDS011;36247;51.952;6.146;2022-08-01T12:40:18;5.95;;;2.10;;
29908;SDS011;36247;51.952;6.146;2022-08-01T12:42:49;6.53;;;2.30;;
29908;SDS011;36247;51.952;6.146;2022-08-01T12:45:20;9.07;;;2.08;;
29908;SDS011;36247;51.952;6.146;2022-08-01T12:47:50;3.03;;;1.70;;
29908;SDS011;36247;51.952;6.146;2022-08-01T12:50:18;6.68;;;1.90;;
29908;SDS011;36247;51.952;6.146;2022-08-01T12:52:46;3.58;;;1.70;;
29908;SDS011;36247;51.952;6.146;2022-08-01T12:55:16;8.02;;;2.30;;
29908;SDS011;36247;51.952;6.146;2022-08-01T12:57:46;5.13;;;2.00;;
29908;SDS011;36247;51.952;6.146;2022-08-01T13:00:24;5.28;;;1.90;;
29908;SDS011;36247;51.952;6.146;2022-08-01T13:03:02;3.88;;;1.70;;
29908;SDS011;36247;51.952;6.146;2022-08-01T13:08:31;5.18;;;2.10;;
29908;SDS011;36247;51.952;6.146;2022-08-01T13:11:02;9.30;;;2.20;;
29908;SDS011;36247;51.952;6.146;2022-08-01T13:13:38;7.07;;;2.30;;
29908;SDS011;36247;51.952;6.146;2022-08-01T13:16:05;5.55;;;1.90;;
29908;SDS011;36247;51.952;6.146;2022-08-01T13:18:32;9.60;;;2.03;;
29908;SDS011;36247;51.952;6.146;2022-08-01T13:23:39;4.97;;;1.75;;
29908;SDS011;36247;51.952;6.146;2022-08-01T13:26:05;7.18;;;1.95;;
29908;SDS011;36247;51.952;6.146;2022-08-01T13:28:31;4.05;;;1.90;;
29908;SDS011;36247;51.952;6.146;2022-08-01T13:31:01;5.28;;;1.83;;
29908;SDS011;36247;51.952;6.146;2022-08-01T13:33:50;5.90;;;1.80;;
29908;SDS011;36247;51.952;6.146;2022-08-01T13:36:15;3.03;;;1.58;;
29908;SDS011;36247;51.952;6.146;2022-08-01T13:38:41;7.03;;;2.17;;
29908;SDS011;36247;51.952;6.146;2022-08-01T13:41:25;5.80;;;2.20;;
29908;SDS011;36247;51.952;6.146;2022-08-01T13:43:51;6.57;;;1.60;;
29908;SDS011;36247;51.952;6.146;2022-08-01T13:46:17;6.80;;;2.10;;
29908;SDS011;36247;51.952;6.146;2022-08-01T13:48:44;7.13;;;2.25;;
29908;SDS011;36247;51.952;6.146;2022-08-01T13:51:09;4.80;;;2.30;;
29908;SDS011;36247;51.952;6.146;2022-08-01T13:53:35;4.95;;;1.85;;
29908;SDS011;36247;51.952;6.146;2022-08-01T13:56:01;5.35;;;2.00;;
29908;SDS011;36247;51.952;6.146;2022-08-01T13:58:26;4.75;;;2.10;;
29908;SDS011;36247;51.952;6.146;2022-08-01T14:00:53;7.07;;;1.83;;
29908;SDS011;36247;51.952;6.146;2022-08-01T14:03:18;7.15;;;2.20;;
29908;SDS011;36247;51.952;6.146;2022-08-01T14:05:44;9.20;;;2.63;;
29908;SDS011;36247;51.952;6.146;2022-08-01T14:08:10;2.53;;;1.98;;
29908;SDS011;36247;51.952;6.146;2022-08-01T14:10:37;8.02;;;2.05;;
29908;SDS011;36247;51.952;6.146;2022-08-01T14:13:02;5.70;;;2.10;;
29908;SDS011;36247;51.952;6.146;2022-08-01T14:15:27;6.47;;;1.95;;
29908;SDS011;36247;51.952;6.146;2022-08-01T14:17:53;7.88;;;2.15;;
29908;SDS011;36247;51.952;6.146;2022-08-01T14:20:21;5.68;;;2.00;;
29908;SDS011;36247;51.952;6.146;2022-08-01T14:22:47;5.88;;;2.10;;
29908;SDS011;36247;51.952;6.146;2022-08-01T14:25:12;6.85;;;2.10;;
29908;SDS011;36247;51.952;6.146;2022-08-01T14:27:38;10.85;;;3.45;;
29908;SDS011;36247;51.952;6.146;2022-08-01T14:30:06;6.93;;;2.53;;
29908;SDS011;36247;51.952;6.146;2022-08-01T14:32:33;7.25;;;2.28;;
29908;SDS011;36247;51.952;6.146;2022-08-01T14:35:00;5.38;;;1.85;;
29908;SDS011;36247;51.952;6.146;2022-08-01T14:37:27;5.35;;;2.40;;
29908;SDS011;36247;51.952;6.146;2022-08-01T14:39:54;6.55;;;2.20;;
29908;SDS011;36247;51.952;6.146;2022-08-01T14:42:23;5.10;;;2.25;;
29908;SDS011;36247;51.952;6.146;2022-08-01T14:44:48;6.82;;;2.03;;
29908;SDS011;36247;51.952;6.146;2022-08-01T14:47:14;5.32;;;2.13;;
29908;SDS011;36247;51.952;6.146;2022-08-01T14:49:39;4.78;;;2.17;;
29908;SDS011;36247;51.952;6.146;2022-08-01T14:52:05;6.65;;;2.17;;
29908;SDS011;36247;51.952;6.146;2022-08-01T14:54:30;6.13;;;2.20;;
29908;SDS011;36247;51.952;6.146;2022-08-01T14:56:56;7.03;;;2.55;;
29908;SDS011;36247;51.952;6.146;2022-08-01T14:59:22;6.47;;;2.45;;
29908;SDS011;36247;51.952;6.146;2022-08-01T15:01:50;5.30;;;1.92;;
29908;SDS011;36247;51.952;6.146;2022-08-01T15:04:15;5.50;;;1.70;;
29908;SDS011;36247;51.952;6.146;2022-08-01T15:06:42;5.43;;;2.25;;
29908;SDS011;36247;51.952;6.146;2022-08-01T15:09:09;7.30;;;2.53;;
29908;SDS011;36247;51.952;6.146;2022-08-01T15:11:35;7.25;;;2.20;;
29908;SDS011;36247;51.952;6.146;2022-08-01T15:14:01;6.97;;;2.53;;
29908;SDS011;36247;51.952;6.146;2022-08-01T15:16:45;6.38;;;2.40;;
29908;SDS011;36247;51.952;6.146;2022-08-01T15:19:11;6.65;;;2.53;;
29908;SDS011;36247;51.952;6.146;2022-08-01T15:21:37;4.43;;;2.05;;
29908;SDS011;36247;51.952;6.146;2022-08-01T15:24:04;6.28;;;2.17;;